Time;durP1;ratioP1;P1;durP2;ratioP2;P2;SDS_P1;SDS_P2;PMS_P1;PMS_P2;Temp;Humidity;BMP_temperature;BMP_pressure;BME280_temperature;BME280_humidity;BME280_pressure;Samples;Min_cycle;Max_cycle;Signal;HPM_P1;HPM_P2
2022/11/04 00:01:21;;;;;;;6.45;1.52;;;;;;;10.41;100.00;99995.53;5030740;28;20021;-43
2022/11/04 00:03:46;;;;;;;5.07;0.93;;;;;;;10.45;100.00;100002.16;5029926;28;20037;-43
2022/11/04 00:06:11;;;;;;;7.50;0.95;;;;;;;10.44;100.00;100004.03;5029606;28;20353;-44
2022/11/04 00:08:37;;;;;;;4.30;0.88;;;;;;;10.43;100.00;99998.88;5030530;28;20029;-43
2022/11/04 00:13:46;;;;;;;2.90;0.55;;;;;;;10.30;100.00;100000.47;5034068;28;20048;-44
2022/11/04 00:18:58;;;;;;;10.50;0.98;;;;;;;10.17;100.00;100000.38;5034872;28;20076;-43
2022/11/04 00:29:44;;;;;;;5.25;0.57;;;;;;;9.92;100.00;100018.03;5034008;28;20475;-44
2022/11/04 00:34:53;;;;;;;18.90;1.27;;;;;;;9.83;100.00;100015.50;5034183;28;20060;-44
2022/11/04 00:37:19;;;;;;;8.57;1.17;;;;;;;9.83;100.00;100020.03;5035035;28;20116;-44
2022/11/04 00:39:44;;;;;;;15.52;1.65;;;;;;;9.82;100.00;100024.59;5014249;28;20026;-44
2022/11/04 00:42:10;;;;;;;11.60;1.38;;;;;;;9.79;100.00;100014.22;5033852;28;20033;-44
2022/11/04 00:44:35;;;;;;;5.22;0.85;;;;;;;9.72;100.00;100013.38;5033519;28;20033;-44
2022/11/04 00:47:00;;;;;;;5.57;0.98;;;;;;;9.66;100.00;100024.88;5034167;28;20383;-44
2022/11/04 00:49:26;;;;;;;11.23;0.95;;;;;;;9.63;100.00;100033.34;5032273;28;20479;-44
2022/11/04 00:51:51;;;;;;;9.65;0.93;;;;;;;9.61;100.00;100032.69;5033667;28;20033;-44
2022/11/04 00:54:16;;;;;;;15.93;1.65;;;;;;;9.62;100.00;100050.50;5033712;28;20029;-44
2022/11/04 00:56:42;;;;;;;8.82;0.73;;;;;;;9.63;100.00;100052.16;5033567;28;20025;-44
2022/11/04 00:59:07;;;;;;;5.18;0.82;;;;;;;9.68;100.00;100055.91;5033571;28;20055;-44
2022/11/04 01:01:33;;;;;;;13.85;1.08;;;;;;;9.70;100.00;100061.09;5031734;28;20609;-44
2022/11/04 01:03:58;;;;;;;6.05;0.95;;;;;;;9.71;100.00;100060.06;5033549;28;20095;-44
2022/11/04 01:06:25;;;;;;;12.43;0.80;;;;;;;9.68;100.00;100077.41;5033241;28;20033;-44
2022/11/04 01:09:01;;;;;;;9.10;0.75;;;;;;;9.67;100.00;100073.06;5033367;28;20403;-44
2022/11/04 01:11:28;;;;;;;8.40;1.02;;;;;;;9.66;100.00;100081.31;5032952;28;20121;-44
2022/11/04 01:13:54;;;;;;;8.02;1.30;;;;;;;9.66;100.00;100086.69;5032433;28;20111;-44
2022/11/04 01:16:20;;;;;;;15.73;1.70;;;;;;;9.65;100.00;100093.09;5014078;28;20042;-44
2022/11/04 01:18:46;;;;;;;10.23;2.72;;;;;;;9.66;100.00;100092.03;5031295;28;20121;-44
2022/11/04 01:21:13;;;;;;;4.07;0.95;;;;;;;9.67;100.00;100091.03;5030987;28;20100;-43
2022/11/04 01:23:39;;;;;;;5.05;1.50;;;;;;;9.70;100.00;100085.28;5032507;28;20385;-43
2022/11/04 01:26:09;;;;;;;5.90;1.15;;;;;;;9.75;100.00;100093.59;5033075;28;20444;-44
2022/11/04 01:28:35;;;;;;;7.50;1.23;;;;;;;9.71;100.00;100091.47;5031423;28;20025;-42
2022/11/04 01:31:11;;;;;;;8.68;1.55;;;;;;;9.69;100.00;100089.00;5030923;28;20497;-45
2022/11/04 01:33:36;;;;;;;5.75;1.20;;;;;;;9.61;100.00;100095.34;5032648;28;20029;-45
2022/11/04 01:36:03;;;;;;;9.35;1.15;;;;;;;9.59;100.00;100096.56;5032854;28;20021;-45
2022/11/04 01:38:29;;;;;;;5.20;1.00;;;;;;;9.57;100.00;100101.28;5014949;28;20116;-44
2022/11/04 01:40:54;;;;;;;8.57;1.13;;;;;;;9.51;100.00;100112.81;5030887;28;20041;-44
2022/11/04 01:43:21;;;;;;;3.17;1.10;;;;;;;9.43;100.00;100109.22;5032401;28;20459;-44
2022/11/04 01:46:00;;;;;;;6.35;0.95;;;;;;;9.45;100.00;100114.38;5032528;28;20037;-43
2022/11/04 01:48:30;;;;;;;1.27;0.63;;;;;;;9.43;100.00;100117.28;5032785;28;20514;-44
2022/11/04 01:50:56;;;;;;;6.25;1.40;;;;;;;9.44;100.00;100110.88;5010762;28;20089;-43
2022/11/04 01:53:28;;;;;;;7.13;1.13;;;;;;;9.45;100.00;100111.69;5022526;28;20049;-44
2022/11/04 01:55:58;;;;;;;6.97;1.50;;;;;;;9.44;100.00;100108.19;5031538;28;20327;-44
2022/11/04 01:58:26;;;;;;;4.30;1.00;;;;;;;9.36;100.00;100123.63;5032161;28;20527;-44
2022/11/04 02:00:51;;;;;;;3.67;0.90;;;;;;;9.40;100.00;100115.00;5032108;28;20029;-43
2022/11/04 02:03:27;;;;;;;6.10;1.10;;;;;;;9.45;100.00;100131.34;5032187;28;20060;-44
2022/11/04 02:05:53;;;;;;;4.43;1.20;;;;;;;9.42;100.00;100126.34;5032517;28;20476;-43
2022/11/04 02:08:18;;;;;;;8.20;1.30;;;;;;;9.40;100.00;100128.41;5032239;28;20088;-42
2022/11/04 02:10:56;;;;;;;10.68;1.20;;;;;;;9.42;100.00;100141.63;5030415;28;20025;-41
2022/11/04 02:13:22;;;;;;;5.93;1.20;;;;;;;9.38;100.00;100148.44;5022343;28;20383;-43
2022/11/04 02:16:02;;;;;;;9.30;1.73;;;;;;;9.35;100.00;100157.69;5032363;28;20054;-45
2022/11/04 02:18:36;;;;;;;5.40;1.10;;;;;;;9.38;100.00;100151.13;5032646;28;20108;-38
2022/11/04 02:21:13;;;;;;;13.10;2.08;;;;;;;9.43;100.00;100154.88;5030861;28;20017;-41
2022/11/04 02:24:02;;;;;;;9.85;1.88;;;;;;;9.36;100.00;100145.91;5030979;28;20548;-43
2022/11/04 02:26:52;;;;;;;5.00;1.35;;;;;;;9.32;100.00;100152.72;5029350;28;20030;-43
2022/11/04 02:29:22;;;;;;;11.50;1.65;;;;;;;9.29;100.00;100161.13;5030774;28;20053;-44
2022/11/04 02:32:06;;;;;;;13.43;1.90;;;;;;;9.24;100.00;100155.50;5030150;28;20040;-44
2022/11/04 02:34:39;;;;;;;15.07;2.65;;;;;;;9.20;100.00;100173.84;5030396;28;20515;-45
2022/11/04 02:37:23;;;;;;;13.52;3.10;;;;;;;9.17;100.00;100171.53;5029902;28;20032;-44
2022/11/04 02:39:59;;;;;;;19.38;5.65;;;;;;;9.17;100.00;100168.03;5030706;28;20033;-41
2022/11/04 02:42:53;;;;;;;14.25;6.65;;;;;;;9.15;100.00;100170.06;5011544;28;20083;-42
2022/11/04 02:45:26;;;;;;;20.35;7.00;;;;;;;9.11;100.00;100172.31;5012864;28;20123;-44
2022/11/04 02:48:11;;;;;;;26.58;9.52;;;;;;;9.09;100.00;100170.84;5011174;28;20072;-45
2022/11/04 02:50:44;;;;;;;17.25;8.35;;;;;;;9.09;100.00;100168.16;5020236;28;20041;-45
2022/11/04 02:54:05;;;;;;;29.95;9.98;;;;;;;9.13;100.00;100174.78;5028926;28;20140;-44
2022/11/04 02:56:34;;;;;;;25.55;9.50;;;;;;;9.10;100.00;100169.81;4998136;28;20082;-44
2022/11/04 02:59:05;;;;;;;27.35;9.63;;;;;;;9.12;100.00;100173.97;5019472;28;20053;-44
2022/11/04 03:01:33;;;;;;;20.83;10.70;;;;;;;9.06;100.00;100168.50;5028846;28;20025;-44
2022/11/04 03:04:09;;;;;;;23.27;10.57;;;;;;;9.01;100.00;100167.22;5028365;28;20036;-44
2022/11/04 03:06:35;;;;;;;32.03;12.40;;;;;;;8.99;100.00;100155.03;5029038;28;20025;-44
2022/11/04 03:09:01;;;;;;;34.83;11.35;;;;;;;8.96;100.00;100168.81;5030444;28;20052;-44
2022/11/04 03:11:27;;;;;;;27.55;13.38;;;;;;;8.94;100.00;100170.84;5029892;28;20483;-43
2022/11/04 03:13:58;;;;;;;28.52;12.55;;;;;;;8.94;100.00;100176.22;5029895;28;20056;-43
2022/11/04 03:16:38;;;;;;;35.17;13.38;;;;;;;8.92;100.00;100178.25;5019118;28;20029;-43
2022/11/04 03:19:15;;;;;;;32.13;14.40;;;;;;;8.87;100.00;100176.13;5012007;28;20034;-43
2022/11/04 03:21:47;;;;;;;31.60;12.33;;;;;;;8.84;100.00;100187.22;5010613;28;21050;-43
2022/11/04 03:24:13;;;;;;;37.28;15.25;;;;;;;8.82;100.00;100186.63;5027569;28;20283;-43
2022/11/04 03:26:44;;;;;;;40.67;13.75;;;;;;;8.79;100.00;100181.59;5029797;28;20261;-43
2022/11/04 03:29:26;;;;;;;35.88;14.48;;;;;;;8.78;100.00;100191.50;5028166;28;20034;-43
2022/11/04 03:32:03;;;;;;;33.50;15.18;;;;;;;8.76;100.00;100190.84;5029781;28;20372;-42
2022/11/04 03:34:29;;;;;;;33.13;13.93;;;;;;;8.77;100.00;100186.34;5029568;28;20036;-43
2022/11/04 03:36:55;;;;;;;42.90;17.02;;;;;;;8.73;100.00;100188.53;5028387;28;20026;-43
2022/11/04 03:39:20;;;;;;;44.15;16.70;;;;;;;8.73;100.00;100182.34;5030041;28;20329;-43
2022/11/04 03:41:49;;;;;;;42.60;19.38;;;;;;;8.71;100.00;100187.06;5030099;28;20025;-43
2022/11/04 03:44:15;;;;;;;47.78;18.67;;;;;;;8.71;100.00;100187.06;5028145;28;20103;-44
2022/11/04 03:46:40;;;;;;;51.35;19.85;;;;;;;8.69;100.00;100197.13;5021255;28;20518;-43
2022/11/04 03:49:06;;;;;;;50.80;19.73;;;;;;;8.69;100.00;100202.50;5032313;28;20052;-43
2022/11/04 03:51:31;;;;;;;55.58;20.73;;;;;;;8.70;100.00;100209.56;5033508;28;20092;-43
2022/11/04 03:53:57;;;;;;;42.47;18.58;;;;;;;8.70;100.00;100207.69;5033237;28;20502;-43
2022/11/04 03:56:46;;;;;;;52.53;19.83;;;;;;;8.70;100.00;100222.97;5032648;28;20026;-43
2022/11/04 03:59:11;;;;;;;45.00;19.33;;;;;;;8.68;100.00;100222.31;5003513;28;20115;-43
2022/11/04 04:01:43;;;;;;;44.03;18.90;;;;;;;8.68;100.00;100219.63;5033483;28;20480;-43
2022/11/04 04:04:17;;;;;;;48.55;20.58;;;;;;;8.69;100.00;100223.97;5033019;28;20040;-44
2022/11/04 04:06:44;;;;;;;53.30;19.25;;;;;;;8.69;100.00;100221.28;5033685;28;20495;-43
2022/11/04 04:09:40;;;;;;;56.15;20.20;;;;;;;8.69;100.00;100232.00;5031844;28;20025;-43
2022/11/04 04:12:32;;;;;;;39.40;19.58;;;;;;;8.68;100.00;100233.03;5027933;28;20468;-43
2022/11/04 04:15:06;;;;;;;46.55;19.00;;;;;;;8.65;100.00;100228.88;4990683;28;20042;-44
2022/11/04 04:17:36;;;;;;;46.03;17.83;;;;;;;8.64;100.00;100234.44;5017693;28;20041;-43
2022/11/04 04:20:20;;;;;;;51.17;18.48;;;;;;;8.60;100.00;100241.19;5031757;28;20127;-45
2022/11/04 04:22:50;;;;;;;38.53;16.63;;;;;;;8.54;100.00;100240.06;5031330;28;20493;-43
2022/11/04 04:28:00;;;;;;;44.35;15.40;;;;;;;8.46;100.00;100240.97;5031433;28;20036;-44
2022/11/04 04:30:26;;;;;;;37.75;15.65;;;;;;;8.44;100.00;100245.69;5033157;28;20022;-44
2022/11/04 04:32:55;;;;;;;40.58;15.75;;;;;;;8.43;100.00;100251.25;5031742;28;20425;-43
2022/11/04 04:35:41;;;;;;;45.00;15.88;;;;;;;8.38;100.00;100257.13;5032576;28;20029;-44
2022/11/04 04:46:31;;;;;;;44.22;14.48;;;;;;;8.28;100.00;100280.66;5031704;28;20092;-43
2022/11/04 04:49:06;;;;;;;35.65;13.95;;;;;;;8.29;100.00;100282.31;5031436;28;20037;-44
2022/11/04 04:51:33;;;;;;;32.35;13.60;;;;;;;8.26;100.00;100286.19;5032729;28;20483;-44
2022/11/04 04:53:59;;;;;;;40.05;15.23;;;;;;;8.27;100.00;100287.06;5032456;28;20387;-44
2022/11/04 04:56:24;;;;;;;40.25;14.93;;;;;;;8.25;100.00;100292.59;5030317;28;20125;-44
2022/11/04 04:58:51;;;;;;;36.90;15.63;;;;;;;8.26;100.00;100302.28;5031212;28;20434;-44
2022/11/04 05:01:16;;;;;;;38.30;15.75;;;;;;;8.27;100.00;100303.16;5032557;28;20097;-44
2022/11/04 05:03:41;;;;;;;31.52;14.35;;;;;;;8.28;100.00;100300.25;5032287;28;20121;-44
2022/11/04 05:06:07;;;;;;;38.17;15.75;;;;;;;8.26;100.00;100304.97;5032613;28;20187;-44
2022/11/04 05:08:34;;;;;;;41.17;16.40;;;;;;;8.28;100.00;100302.13;5032026;28;20041;-44
2022/11/04 05:10:59;;;;;;;41.55;16.60;;;;;;;8.32;100.00;100306.09;5030515;28;20033;-44
2022/11/04 05:13:25;;;;;;;43.03;15.25;;;;;;;8.29;100.00;100301.94;5032154;28;20227;-44
2022/11/04 05:15:52;;;;;;;38.53;14.60;;;;;;;8.32;100.00;100303.41;5032376;28;20030;-43
2022/11/04 05:18:18;;;;;;;30.05;13.48;;;;;;;8.36;100.00;100318.13;5031312;28;20033;-44
2022/11/04 05:20:44;;;;;;;32.58;13.82;;;;;;;8.37;100.00;100319.78;5032666;28;20026;-44
2022/11/04 05:23:11;;;;;;;36.67;14.52;;;;;;;8.38;100.00;100326.00;5032589;28;20040;-44
2022/11/04 05:25:38;;;;;;;29.30;14.65;;;;;;;8.46;100.00;100334.00;5017546;28;20034;-44
2022/11/04 05:28:04;;;;;;;39.92;14.40;;;;;;;8.52;100.00;100335.97;5032773;28;20440;-44
2022/11/04 05:30:30;;;;;;;46.08;16.92;;;;;;;8.62;100.00;100343.78;5032119;28;20034;-44
2022/11/04 05:32:55;;;;;;;43.63;16.38;;;;;;;8.67;100.00;100338.69;5031455;28;20506;-43
2022/11/04 05:35:21;;;;;;;40.83;17.80;;;;;;;8.74;100.00;100343.16;5031927;28;20387;-44
2022/11/04 05:37:46;;;;;;;55.15;20.92;;;;;;;8.80;100.00;100349.63;5031789;28;20018;-44
2022/11/04 05:40:11;;;;;;;47.95;20.75;;;;;;;8.84;100.00;100347.41;5004897;28;20042;-45
2022/11/04 05:42:37;;;;;;;47.15;21.23;;;;;;;8.90;100.00;100354.72;5028859;28;21156;-44
2022/11/04 05:45:03;;;;;;;47.55;21.17;;;;;;;8.92;100.00;100353.53;5021956;28;20041;-44
2022/11/04 05:47:28;;;;;;;53.88;20.23;;;;;;;8.88;100.00;100348.72;5026671;28;20500;-43
2022/11/04 05:49:54;;;;;;;51.63;22.65;;;;;;;8.79;100.00;100347.94;5029949;28;20082;-44
2022/11/04 05:52:19;;;;;;;54.22;22.77;;;;;;;8.79;100.00;100351.50;5030679;28;20454;-45
2022/11/04 05:54:44;;;;;;;57.63;22.42;;;;;;;8.79;100.00;100348.81;5024474;28;20049;-43
2022/11/04 05:57:10;;;;;;;43.13;21.23;;;;;;;8.80;100.00;100349.63;5023221;28;20033;-43
2022/11/04 05:59:35;;;;;;;44.97;21.00;;;;;;;8.76;100.00;100345.63;5010868;28;20041;-43
2022/11/04 06:02:01;;;;;;;44.80;22.35;;;;;;;8.77;100.00;100347.31;5025447;28;20045;-44
2022/11/04 06:04:27;;;;;;;49.85;22.95;;;;;;;8.72;100.00;100349.72;5032080;28;20025;-44
2022/11/04 06:06:52;;;;;;;52.58;23.90;;;;;;;8.70;100.00;100349.06;4998476;28;20040;-44
2022/11/04 06:09:17;;;;;;;51.03;22.45;;;;;;;8.65;100.00;100352.28;5028225;28;20049;-43
2022/11/04 06:11:44;;;;;;;53.50;23.17;;;;;;;8.61;100.00;100350.13;5031064;28;20029;-45
2022/11/04 06:14:09;;;;;;;50.22;22.02;;;;;;;8.59;100.00;100354.88;5031241;28;20136;-45
2022/11/04 06:16:34;;;;;;;48.75;21.35;;;;;;;8.56;100.00;100356.06;5031869;28;20112;-43
2022/11/04 06:19:00;;;;;;;53.28;21.40;;;;;;;8.57;100.00;100342.44;5031870;28;20033;-44
2022/11/04 06:21:28;;;;;;;42.45;18.83;;;;;;;8.56;100.00;100346.16;5031470;28;20035;-44
2022/11/04 06:23:56;;;;;;;43.83;18.55;;;;;;;8.51;100.00;100337.81;5030825;28;20339;-44
2022/11/04 06:26:22;;;;;;;39.88;17.33;;;;;;;8.50;100.00;100332.63;5030132;28;20044;-44
2022/11/04 06:28:47;;;;;;;49.17;16.88;;;;;;;8.49;100.00;100339.84;5030894;28;20368;-45
2022/11/04 06:31:14;;;;;;;39.47;16.88;;;;;;;8.47;100.00;100339.19;5031052;28;20044;-43
2022/11/04 06:33:39;;;;;;;40.08;15.40;;;;;;;8.50;100.00;100340.66;5031365;28;20140;-43
2022/11/04 06:36:06;;;;;;;35.00;13.95;;;;;;;8.52;100.00;100352.06;5030917;28;20301;-44
2022/11/04 06:38:34;;;;;;;31.90;13.10;;;;;;;8.51;100.00;100359.28;5026024;28;20044;-44
2022/11/04 06:40:59;;;;;;;32.00;12.02;;;;;;;8.54;100.00;100358.91;5030637;28;20025;-44
2022/11/04 06:43:25;;;;;;;37.13;12.35;;;;;;;8.59;100.00;100362.91;5018017;28;20033;-43
2022/11/04 06:45:58;;;;;;;37.13;10.18;;;;;;;8.58;100.00;100370.09;5011179;28;20034;-44
2022/11/04 06:48:24;;;;;;;30.75;10.57;;;;;;;8.59;100.00;100369.09;5011166;28;20097;-43
2022/11/04 06:50:50;;;;;;;35.25;9.73;;;;;;;8.58;100.00;100367.41;5020326;28;20567;-43
2022/11/04 06:53:15;;;;;;;24.08;10.15;;;;;;;8.59;100.00;100369.09;5030218;28;20105;-43
2022/11/04 06:55:40;;;;;;;29.17;9.80;;;;;;;8.65;100.00;100375.59;5029159;28;20030;-43
2022/11/04 06:58:06;;;;;;;32.05;8.98;;;;;;;8.70;100.00;100375.88;5030178;28;20049;-43
2022/11/04 07:00:31;;;;;;;21.15;9.30;;;;;;;8.71;100.00;100385.59;5028918;28;20026;-43
2022/11/04 07:02:57;;;;;;;21.17;8.75;;;;;;;8.72;100.00;100384.59;5030690;28;20120;-44
2022/11/04 07:05:22;;;;;;;30.38;8.75;;;;;;;8.74;100.00;100390.59;5030545;28;20021;-43
2022/11/04 07:07:48;;;;;;;33.28;9.05;;;;;;;8.72;100.00;100398.84;5028925;28;20030;-48
2022/11/04 07:10:16;;;;;;;24.63;7.95;;;;;;;8.66;100.00;100404.06;5030674;28;20475;-43
2022/11/04 07:12:41;;;;;;;23.52;8.07;;;;;;;8.70;100.00;100408.06;5029320;28;20025;-43
2022/11/04 07:15:07;;;;;;;22.20;8.65;;;;;;;8.77;100.00;100411.72;5028770;28;20384;-44
2022/11/04 07:17:33;;;;;;;29.38;8.55;;;;;;;8.82;100.00;100424.56;5030474;28;20055;-44
2022/11/04 07:19:58;;;;;;;30.67;8.13;;;;;;;8.86;100.00;100429.41;5029007;28;20535;-43
2022/11/04 07:22:23;;;;;;;24.95;8.73;;;;;;;8.93;100.00;100427.66;5031392;28;20597;-43
2022/11/04 07:24:48;;;;;;;23.63;9.05;;;;;;;8.99;100.00;100426.09;5031977;28;20057;-41
2022/11/04 07:27:15;;;;;;;21.85;8.68;;;;;;;9.06;100.00;100434.25;5031810;28;20025;-43
2022/11/04 07:29:41;;;;;;;28.10;8.73;;;;;;;9.00;100.00;100438.50;5031679;28;20033;-43
2022/11/04 07:32:06;;;;;;;24.90;8.40;;;;;;;9.11;100.00;100438.06;5025063;28;20025;-45
2022/11/04 07:34:31;;;;;;;26.67;9.38;;;;;;;9.23;100.00;100439.28;5020402;28;20029;-44
2022/11/04 07:36:57;;;;;;;25.17;9.77;;;;;;;9.31;100.00;100449.13;5019038;28;20029;-43
2022/11/04 07:39:22;;;;;;;28.02;8.98;;;;;;;9.59;100.00;100453.88;5024020;28;20029;-45
2022/11/04 07:41:47;;;;;;;26.52;8.77;;;;;;;9.84;100.00;100457.91;5030247;28;20029;-43
2022/11/04 07:44:13;;;;;;;38.63;8.30;;;;;;;9.82;100.00;100457.28;5023284;28;20035;-43
2022/11/04 07:46:38;;;;;;;22.27;7.72;;;;;;;9.78;100.00;100466.75;5023153;28;20101;-43
2022/11/04 07:49:07;;;;;;;27.73;7.90;;;;;;;9.74;100.00;100468.16;5022270;28;20099;-44
2022/11/04 07:51:33;;;;;;;24.30;7.28;;;;;;;9.79;100.00;100464.88;5020619;28;20025;-43
2022/11/04 07:53:58;;;;;;;24.35;8.48;;;;;;;9.77;100.00;100466.91;5022142;28;20041;-44
2022/11/04 07:56:25;;;;;;;24.00;8.57;;;;;;;9.93;100.00;100465.91;5020338;28;20014;-44
2022/11/04 07:58:51;;;;;;;26.52;7.90;;;;;;;10.32;100.00;100476.31;5021201;28;20032;-43
2022/11/04 08:01:19;;;;;;;21.95;8.18;;;;;;;10.66;100.00;100477.53;5021342;28;20037;-43
2022/11/04 08:03:44;;;;;;;20.20;8.25;;;;;;;11.15;100.00;100474.06;5021648;28;20034;-43
2022/11/04 08:06:12;;;;;;;27.95;7.68;;;;;;;11.99;100.00;100474.00;5020531;28;20028;-45
2022/11/04 08:08:38;;;;;;;;;;;;;;;12.82;100.00;100473.88;5022093;28;20037;-44
2022/11/04 08:11:12;;;;;;;14.18;6.68;;;;;;;13.43;100.00;100469.31;5022472;28;19928;-44
2022/11/04 08:13:39;;;;;;;16.05;5.32;;;;;;;14.35;100.00;100454.66;5021048;28;20026;-44
2022/11/04 08:16:08;;;;;;;20.13;5.03;;;;;;;15.64;100.00;100457.00;5017978;28;20056;-44
2022/11/04 08:18:34;;;;;;;14.05;4.45;;;;;;;16.89;94.06;100454.63;5020546;28;20033;-44
2022/11/04 08:21:01;;;;;;;9.23;3.78;;;;;;;17.56;89.35;100464.34;5020464;28;20037;-44
2022/11/04 08:23:27;;;;;;;5.38;2.75;;;;;;;18.06;82.19;100455.69;5017979;28;20029;-44
2022/11/04 08:25:54;;;;;;;8.52;3.33;;;;;;;17.99;78.37;100453.09;5021947;28;20526;-44
2022/11/04 08:28:19;;;;;;;9.80;3.55;;;;;;;17.84;78.39;100457.38;5019828;28;20030;-44
2022/11/04 08:31:06;;;;;;;8.05;3.10;;;;;;;16.78;76.12;100455.41;5020428;28;20026;-44
2022/11/04 08:33:32;;;;;;;9.57;3.33;;;;;;;15.71;78.57;100460.53;5024306;28;20077;-44
2022/11/04 08:36:01;;;;;;;10.73;3.25;;;;;;;15.09;84.18;100468.59;5024362;28;20041;-44
2022/11/04 08:38:27;;;;;;;11.30;3.08;;;;;;;14.45;87.95;100470.44;5023527;28;20024;-44
2022/11/04 08:40:58;;;;;;;15.38;4.00;;;;;;;13.73;91.19;100475.91;5024342;28;20022;-45
2022/11/04 08:43:24;;;;;;;7.60;3.17;;;;;;;13.25;95.31;100475.34;5022921;28;20018;-43
2022/11/04 08:45:51;;;;;;;12.15;3.80;;;;;;;12.95;98.98;100483.81;5022322;28;20021;-44
2022/11/04 08:48:16;;;;;;;12.43;3.55;;;;;;;12.79;100.00;100492.31;5022845;28;20396;-44
2022/11/04 08:50:42;;;;;;;6.65;3.83;;;;;;;12.72;100.00;100490.47;5022989;28;20026;-44
2022/11/04 08:53:07;;;;;;;6.20;3.15;;;;;;;12.61;100.00;100487.50;5025060;28;20025;-43
2022/11/04 08:55:33;;;;;;;11.65;3.10;;;;;;;12.52;100.00;100490.41;5023965;28;20435;-43
2022/11/04 08:58:00;;;;;;;10.32;3.55;;;;;;;12.37;100.00;100489.72;5022836;28;20022;-42
2022/11/04 09:00:25;;;;;;;7.28;3.50;;;;;;;12.28;100.00;100494.47;5024667;28;20026;-43
2022/11/04 09:02:51;;;;;;;7.32;3.30;;;;;;;12.09;100.00;100495.22;5022190;28;20053;-43
2022/11/04 09:05:16;;;;;;;11.88;4.03;;;;;;;12.14;100.00;100497.31;5023684;28;20026;-42
2022/11/04 09:07:42;;;;;;;11.07;3.88;;;;;;;11.94;100.00;100500.75;5025856;28;20034;-42
2022/11/04 09:10:08;;;;;;;12.63;3.97;;;;;;;12.01;100.00;100498.09;5022622;28;20388;-43
2022/11/04 09:12:35;;;;;;;12.73;4.00;;;;;;;12.06;100.00;100507.25;5023610;28;20043;-44
2022/11/04 09:15:01;;;;;;;7.95;3.20;;;;;;;12.03;100.00;100504.09;5022485;28;20131;-43
2022/11/04 09:17:27;;;;;;;5.00;3.08;;;;;;;11.95;100.00;100496.19;5023460;28;20033;-43
2022/11/04 09:19:52;;;;;;;10.80;3.45;;;;;;;11.92;100.00;100502.78;5023763;28;20038;-42
2022/11/04 09:22:17;;;;;;;7.70;2.55;;;;;;;11.99;100.00;100500.97;5024596;28;20033;-42
2022/11/04 09:24:43;;;;;;;11.77;3.72;;;;;;;11.89;100.00;100505.06;5020664;28;20666;-42
2022/11/04 09:27:08;;;;;;;7.93;3.47;;;;;;;11.61;100.00;100504.06;5024356;28;20042;-41
2022/11/04 09:29:35;;;;;;;9.63;4.18;;;;;;;11.58;100.00;100509.81;5022147;28;20029;-42
2022/11/04 09:32:03;;;;;;;11.18;3.63;;;;;;;11.56;100.00;100516.47;5023375;28;20034;-42
2022/11/04 09:34:28;;;;;;;15.32;3.60;;;;;;;11.63;100.00;100522.72;5022846;28;20101;-42
2022/11/04 09:36:55;;;;;;;7.95;3.47;;;;;;;11.61;100.00;100525.63;5023522;28;20108;-41
2022/11/04 09:39:23;;;;;;;13.45;4.00;;;;;;;11.56;100.00;100532.63;5024002;28;20036;-41
2022/11/04 09:42:09;;;;;;;7.70;4.38;;;;;;;11.49;100.00;100534.44;5023951;28;20080;-42
2022/11/04 09:44:52;;;;;;;7.20;4.20;;;;;;;11.68;100.00;100530.22;5022869;28;20032;-43
2022/11/04 09:47:21;;;;;;;11.82;4.88;;;;;;;11.84;100.00;100546.06;5021477;28;20040;-42
2022/11/04 09:49:49;;;;;;;10.65;5.07;;;;;;;11.93;100.00;100547.63;5022472;28;20369;-41
2022/11/04 09:52:22;;;;;;;;;;;;;;;12.21;100.00;100558.34;5022353;28;20037;-42
2022/11/04 09:54:51;;;;;;;10.13;4.88;;;;;;;12.55;100.00;100561.22;5019840;28;19913;-42
2022/11/04 09:57:18;;;;;;;9.02;4.80;;;;;;;12.86;100.00;100569.63;5022224;28;20438;-43
2022/11/04 09:59:43;;;;;;;15.40;4.82;;;;;;;13.07;100.00;100568.63;5021826;28;20086;-42
2022/11/04 10:02:31;;;;;;;7.93;4.90;;;;;;;13.23;100.00;100572.81;5011412;28;20022;-43
2022/11/04 10:05:31;;;;;;;23.98;6.85;;;;;;;13.23;100.00;100574.69;5012701;28;20038;-43
2022/11/04 10:08:15;;;;;;;13.05;5.18;;;;;;;13.25;100.00;100581.56;4981122;28;20077;-42
2022/11/04 10:10:59;;;;;;;10.80;5.18;;;;;;;13.44;100.00;100579.13;5010790;28;20032;-42
2022/11/04 10:13:49;;;;;;;10.90;4.93;;;;;;;13.42;100.00;100584.72;5009990;28;20045;-43
2022/11/04 10:16:46;;;;;;;9.73;4.95;;;;;;;13.42;100.00;100594.69;4955128;28;20056;-43
2022/11/04 10:19:18;;;;;;;14.30;5.03;;;;;;;13.56;100.00;100607.19;5011362;28;20038;-44
2022/11/04 10:21:56;;;;;;;15.85;5.70;;;;;;;13.57;100.00;100606.97;5009608;28;20045;-42
2022/11/04 10:24:27;;;;;;;25.60;5.60;;;;;;;13.45;100.00;100603.22;5011201;28;20044;-45
2022/11/04 10:26:59;;;;;;;12.65;5.82;;;;;;;13.49;100.00;100609.06;5011559;28;20029;-43
2022/11/04 10:29:33;;;;;;;11.18;6.20;;;;;;;13.72;100.00;100614.91;5011534;28;20235;-43
2022/11/04 10:32:00;;;;;;;9.90;5.10;;;;;;;13.62;100.00;100606.38;5010393;28;20292;-43
2022/11/04 10:34:51;;;;;;;8.50;4.43;;;;;;;13.31;100.00;100610.50;5010497;28;20022;-43
2022/11/04 10:37:17;;;;;;;11.23;4.60;;;;;;;13.25;100.00;100611.28;5010774;28;20472;-43
2022/11/04 10:39:45;;;;;;;11.43;4.63;;;;;;;13.32;100.00;100614.00;5011503;28;20026;-44
2022/11/04 10:42:12;;;;;;;10.50;5.32;;;;;;;13.37;100.00;100616.94;5010308;28;20034;-42
2022/11/04 10:44:38;;;;;;;11.10;4.90;;;;;;;13.30;100.00;100625.06;5010256;28;20030;-42
2022/11/04 10:47:10;;;;;;;10.43;4.47;;;;;;;13.24;100.00;100633.94;5019740;28;20022;-43
2022/11/04 10:49:42;;;;;;;15.32;5.50;;;;;;;13.32;100.00;100633.78;5031299;28;20038;-43
2022/11/04 10:52:09;;;;;;;9.07;4.60;;;;;;;13.63;100.00;100637.75;5031146;28;20052;-43
2022/11/04 10:54:40;;;;;;;8.48;4.22;;;;;;;14.21;100.00;100637.13;5029869;28;20022;-42
2022/11/04 10:57:05;;;;;;;8.77;3.88;;;;;;;14.35;100.00;100636.06;5030999;28;20037;-43
2022/11/04 10:59:50;;;;;;;8.82;3.75;;;;;;;14.60;97.73;100630.78;5030872;28;20022;-43
2022/11/04 11:02:16;;;;;;;9.55;3.60;;;;;;;14.90;92.76;100633.81;5029805;28;20026;-43
2022/11/04 11:04:46;;;;;;;11.93;3.60;;;;;;;15.24;91.78;100629.03;5031649;28;21083;-43
2022/11/04 11:07:18;;;;;;;8.52;3.03;;;;;;;15.01;89.56;100629.59;5031717;28;20091;-44
2022/11/04 11:09:51;;;;;;;6.28;2.20;;;;;;;15.05;86.06;100643.53;5031754;28;20364;-43
2022/11/04 11:12:17;;;;;;;8.63;2.80;;;;;;;15.74;86.81;100655.44;5030751;28;20040;-43
2022/11/04 11:14:43;;;;;;;8.13;2.35;;;;;;;15.72;83.40;100668.41;5030863;28;20053;-43
2022/11/04 11:17:18;;;;;;;7.03;1.67;;;;;;;15.44;82.51;100661.44;5030144;28;20461;-43
2022/11/04 11:19:54;;;;;;;7.93;0.90;;;;;;;14.86;82.06;100680.53;5030913;28;20077;-43
2022/11/04 11:22:40;;;;;;;4.93;1.20;;;;;;;14.34;83.33;100676.88;5029572;28;20029;-43
2022/11/04 11:25:25;;;;;;;5.05;1.30;;;;;;;14.08;86.74;100686.66;5030749;28;20489;-42
2022/11/04 11:28:00;;;;;;;4.07;0.80;;;;;;;13.84;87.50;100693.53;5030628;28;20025;-43
2022/11/04 11:30:26;;;;;;;9.38;1.58;;;;;;;13.67;89.08;100693.13;5029064;28;20360;-43
2022/11/04 11:33:02;;;;;;;8.35;1.20;;;;;;;13.52;90.71;100695.16;5030647;28;20129;-42
2022/11/04 11:35:31;;;;;;;4.20;0.75;;;;;;;13.46;90.89;100698.69;5030319;28;20033;-42
2022/11/04 11:37:57;;;;;;;17.50;2.75;;;;;;;13.37;92.20;100698.84;5030631;28;20029;-42
2022/11/04 11:40:36;;;;;;;6.13;1.42;;;;;;;13.51;93.66;100698.91;5030391;28;20026;-42
2022/11/04 11:43:03;;;;;;;13.27;1.80;;;;;;;14.17;93.27;100706.25;5029178;28;20075;-42
2022/11/04 11:45:30;;;;;;;5.40;1.40;;;;;;;14.38;93.16;100702.50;5029398;28;20365;-43
2022/11/04 11:47:55;;;;;;;10.18;1.40;;;;;;;14.61;90.35;100711.03;5028884;28;20041;-43
2022/11/04 11:50:33;;;;;;;5.32;1.50;;;;;;;14.56;90.26;100709.97;5012837;28;20480;-42
2022/11/04 11:53:20;;;;;;;5.53;1.10;;;;;;;14.41;90.19;100726.44;5029136;28;20026;-43
2022/11/04 11:55:52;;;;;;;6.38;1.13;;;;;;;14.09;89.07;100728.13;5030253;28;20084;-42